sensor_id;sensor_type;location;lat;lon;timestamp;temperature;humidity
13433;DHT22;6789;47.678;9.158;2024-02-14T00:04:49;4.60;99.90
13433;DHT22;6789;47.678;9.158;2024-02-14T00:09:41;4.60;99.90
13433;DHT22;6789;47.678;9.158;2024-02-14T00:14:33;4.50;99.90
13433;DHT22;6789;47.678;9.158;2024-02-14T00:19:25;4.40;99.90
13433;DHT22;6789;47.678;9.158;2024-02-14T00:24:17;4.30;99.90
13433;DHT22;6789;47.678;9.158;2024-02-14T00:29:09;4.20;99.90
13433;DHT22;6789;47.678;9.158;2024-02-14T00:34:01;4.10;99.90
13433;DHT22;6789;47.678;9.158;2024-02-14T00:38:53;4.20;99.90
13433;DHT22;6789;47.678;9.158;2024-02-14T00:43:45;4.10;99.90
13433;DHT22;6789;47.678;9.158;2024-02-14T00:48:37;4.10;99.90
13433;DHT22;6789;47.678;9.158;2024-02-14T00:53:29;4.20;99.90
13433;DHT22;6789;47.678;9.158;2024-02-14T00:58:20;4.20;99.90
13433;DHT22;6789;47.678;9.158;2024-02-14T01:03:12;4.30;99.90
13433;DHT22;6789;47.678;9.158;2024-02-14T01:08:06;4.30;99.90
13433;DHT22;6789;47.678;9.158;2024-02-14T01:12:58;4.30;99.90
13433;DHT22;6789;47.678;9.158;2024-02-14T01:17:50;4.40;99.90
13433;DHT22;6789;47.678;9.158;2024-02-14T01:22:42;4.40;99.90
13433;DHT22;6789;47.678;9.158;2024-02-14T01:27:33;4.40;99.90
13433;DHT22;6789;47.678;9.158;2024-02-14T01:32:25;4.50;99.90
13433;DHT22;6789;47.678;9.158;2024-02-14T01:37:21;4.50;99.90
13433;DHT22;6789;47.678;9.158;2024-02-14T01:42:13;4.50;99.90
13433;DHT22;6789;47.678;9.158;2024-02-14T01:47:05;4.40;99.90
13433;DHT22;6789;47.678;9.158;2024-02-14T01:52:01;4.50;99.90
13433;DHT22;6789;47.678;9.158;2024-02-14T01:56:55;4.40;99.90
13433;DHT22;6789;47.678;9.158;2024-02-14T02:01:50;4.50;99.90
13433;DHT22;6789;47.678;9.158;2024-02-14T02:06:45;4.50;99.90
13433;DHT22;6789;47.678;9.158;2024-02-14T02:11:46;4.40;99.90
13433;DHT22;6789;47.678;9.158;2024-02-14T02:16:40;4.40;99.90
13433;DHT22;6789;47.678;9.158;2024-02-14T02:21:32;4.40;99.90
13433;DHT22;6789;47.678;9.158;2024-02-14T02:26:24;4.30;99.90
13433;DHT22;6789;47.678;9.158;2024-02-14T02:31:16;4.30;99.90
13433;DHT22;6789;47.678;9.158;2024-02-14T02:36:09;4.30;99.90
13433;DHT22;6789;47.678;9.158;2024-02-14T02:41:02;4.30;99.90
13433;DHT22;6789;47.678;9.158;2024-02-14T02:45:55;4.30;99.90
13433;DHT22;6789;47.678;9.158;2024-02-14T02:50:49;4.30;99.90
13433;DHT22;6789;47.678;9.158;2024-02-14T02:55:41;4.30;99.90
13433;DHT22;6789;47.678;9.158;2024-02-14T03:00:33;4.20;99.90
13433;DHT22;6789;47.678;9.158;2024-02-14T03:05:25;4.20;99.90
13433;DHT22;6789;47.678;9.158;2024-02-14T03:10:18;4.40;99.90
13433;DHT22;6789;47.678;9.158;2024-02-14T03:15:10;4.40;99.90
13433;DHT22;6789;47.678;9.158;2024-02-14T03:20:03;4.10;99.90
13433;DHT22;6789;47.678;9.158;2024-02-14T03:25:07;4.00;99.90
13433;DHT22;6789;47.678;9.158;2024-02-14T03:29:59;4.00;99.90
13433;DHT22;6789;47.678;9.158;2024-02-14T03:34:51;3.80;99.90
13433;DHT22;6789;47.678;9.158;2024-02-14T03:39:43;3.70;99.90
13433;DHT22;6789;47.678;9.158;2024-02-14T03:44:34;3.70;99.90
13433;DHT22;6789;47.678;9.158;2024-02-14T03:49:26;3.70;99.90
13433;DHT22;6789;47.678;9.158;2024-02-14T03:54:18;3.80;99.90
13433;DHT22;6789;47.678;9.158;2024-02-14T03:59:12;3.90;99.90
13433;DHT22;6789;47.678;9.158;2024-02-14T04:04:04;4.00;99.90
13433;DHT22;6789;47.678;9.158;2024-02-14T04:08:55;4.10;99.90
13433;DHT22;6789;47.678;9.158;2024-02-14T04:13:47;4.20;99.90
13433;DHT22;6789;47.678;9.158;2024-02-14T04:18:39;4.20;99.90
13433;DHT22;6789;47.678;9.158;2024-02-14T04:23:31;4.40;99.90
13433;DHT22;6789;47.678;9.158;2024-02-14T04:28:23;4.50;99.90
13433;DHT22;6789;47.678;9.158;2024-02-14T04:33:14;4.40;99.90
13433;DHT22;6789;47.678;9.158;2024-02-14T04:38:06;4.30;99.90
13433;DHT22;6789;47.678;9.158;2024-02-14T04:43:00;4.30;99.90
13433;DHT22;6789;47.678;9.158;2024-02-14T04:47:52;4.50;99.90
13433;DHT22;6789;47.678;9.158;2024-02-14T04:52:44;4.50;99.90
13433;DHT22;6789;47.678;9.158;2024-02-14T04:57:35;4.60;99.90
13433;DHT22;6789;47.678;9.158;2024-02-14T05:02:28;4.60;99.90
13433;DHT22;6789;47.678;9.158;2024-02-14T05:07:20;4.70;99.90
13433;DHT22;6789;47.678;9.158;2024-02-14T05:12:12;4.70;99.90
13433;DHT22;6789;47.678;9.158;2024-02-14T05:17:04;4.80;99.90
13433;DHT22;6789;47.678;9.158;2024-02-14T05:21:56;4.80;99.90
13433;DHT22;6789;47.678;9.158;2024-02-14T05:26:48;4.70;99.90
13433;DHT22;6789;47.678;9.158;2024-02-14T05:31:45;4.70;99.90
13433;DHT22;6789;47.678;9.158;2024-02-14T05:36:38;4.80;99.90
13433;DHT22;6789;47.678;9.158;2024-02-14T05:41:30;4.90;99.90
13433;DHT22;6789;47.678;9.158;2024-02-14T05:46:24;5.00;99.90
13433;DHT22;6789;47.678;9.158;2024-02-14T05:51:17;5.00;99.90
13433;DHT22;6789;47.678;9.158;2024-02-14T05:56:08;5.20;99.90
13433;DHT22;6789;47.678;9.158;2024-02-14T06:01:00;5.20;99.90
13433;DHT22;6789;47.678;9.158;2024-02-14T06:05:52;5.30;99.90
13433;DHT22;6789;47.678;9.158;2024-02-14T06:10:44;5.40;99.90
13433;DHT22;6789;47.678;9.158;2024-02-14T06:15:36;5.40;99.90
13433;DHT22;6789;47.678;9.158;2024-02-14T06:20:28;5.50;99.90
13433;DHT22;6789;47.678;9.158;2024-02-14T06:25:20;5.40;99.90
13433;DHT22;6789;47.678;9.158;2024-02-14T06:30:12;5.50;99.90
13433;DHT22;6789;47.678;9.158;2024-02-14T06:35:05;5.50;99.90
13433;DHT22;6789;47.678;9.158;2024-02-14T06:39:58;5.60;99.90
13433;DHT22;6789;47.678;9.158;2024-02-14T06:44:50;5.60;99.90
13433;DHT22;6789;47.678;9.158;2024-02-14T06:49:41;5.60;99.90
13433;DHT22;6789;47.678;9.158;2024-02-14T06:54:33;5.70;99.90
13433;DHT22;6789;47.678;9.158;2024-02-14T06:59:25;5.70;99.90
13433;DHT22;6789;47.678;9.158;2024-02-14T07:04:17;5.60;99.90
13433;DHT22;6789;47.678;9.158;2024-02-14T07:09:16;5.70;99.90
13433;DHT22;6789;47.678;9.158;2024-02-14T07:14:09;5.80;99.90
13433;DHT22;6789;47.678;9.158;2024-02-14T07:19:00;5.80;99.90
13433;DHT22;6789;47.678;9.158;2024-02-14T07:23:53;5.90;99.90
13433;DHT22;6789;47.678;9.158;2024-02-14T07:28:45;6.00;99.90
13433;DHT22;6789;47.678;9.158;2024-02-14T07:33:36;6.10;99.90
13433;DHT22;6789;47.678;9.158;2024-02-14T07:38:28;6.20;99.90
13433;DHT22;6789;47.678;9.158;2024-02-14T07:43:20;6.10;99.90
13433;DHT22;6789;47.678;9.158;2024-02-14T07:48:12;6.30;99.90
13433;DHT22;6789;47.678;9.158;2024-02-14T07:53:04;6.40;99.90
13433;DHT22;6789;47.678;9.158;2024-02-14T07:57:58;6.50;99.90
13433;DHT22;6789;47.678;9.158;2024-02-14T08:02:51;6.60;99.90
13433;DHT22;6789;47.678;9.158;2024-02-14T08:07:46;6.60;99.90
13433;DHT22;6789;47.678;9.158;2024-02-14T08:12:38;6.80;99.90
13433;DHT22;6789;47.678;9.158;2024-02-14T08:17:30;6.90;99.90
13433;DHT22;6789;47.678;9.158;2024-02-14T08:22:22;7.30;99.90
13433;DHT22;6789;47.678;9.158;2024-02-14T08:27:14;7.40;99.90
13433;DHT22;6789;47.678;9.158;2024-02-14T08:32:06;7.60;99.90
13433;DHT22;6789;47.678;9.158;2024-02-14T08:36:57;7.80;99.90
13433;DHT22;6789;47.678;9.158;2024-02-14T08:41:49;7.80;99.90
13433;DHT22;6789;47.678;9.158;2024-02-14T08:46:41;7.90;99.90
13433;DHT22;6789;47.678;9.158;2024-02-14T08:51:36;8.00;99.90
13433;DHT22;6789;47.678;9.158;2024-02-14T08:56:29;8.20;99.90
13433;DHT22;6789;47.678;9.158;2024-02-14T09:01:37;8.40;99.90
13433;DHT22;6789;47.678;9.158;2024-02-14T09:06:29;8.40;99.90
13433;DHT22;6789;47.678;9.158;2024-02-14T09:11:21;8.50;99.90
13433;DHT22;6789;47.678;9.158;2024-02-14T09:16:14;8.50;99.90
13433;DHT22;6789;47.678;9.158;2024-02-14T09:21:07;8.50;99.90
13433;DHT22;6789;47.678;9.158;2024-02-14T09:25:59;8.70;99.90
13433;DHT22;6789;47.678;9.158;2024-02-14T09:30:51;9.00;99.90
13433;DHT22;6789;47.678;9.158;2024-02-14T09:35:43;9.30;99.90
13433;DHT22;6789;47.678;9.158;2024-02-14T09:40:42;9.60;99.90
13433;DHT22;6789;47.678;9.158;2024-02-14T09:45:35;10.00;99.90
13433;DHT22;6789;47.678;9.158;2024-02-14T09:50:32;10.20;99.90
13433;DHT22;6789;47.678;9.158;2024-02-14T09:55:26;10.20;99.90
13433;DHT22;6789;47.678;9.158;2024-02-14T10:00:18;10.40;99.90
13433;DHT22;6789;47.678;9.158;2024-02-14T10:05:10;10.30;99.90
13433;DHT22;6789;47.678;9.158;2024-02-14T10:10:06;10.50;99.90
13433;DHT22;6789;47.678;9.158;2024-02-14T10:14:59;10.30;99.90
13433;DHT22;6789;47.678;9.158;2024-02-14T10:19:58;10.20;99.90
13433;DHT22;6789;47.678;9.158;2024-02-14T10:24:51;10.70;99.90
13433;DHT22;6789;47.678;9.158;2024-02-14T10:29:43;10.80;99.90
13433;DHT22;6789;47.678;9.158;2024-02-14T10:34:37;11.20;99.90
13433;DHT22;6789;47.678;9.158;2024-02-14T10:39:31;11.50;99.90
13433;DHT22;6789;47.678;9.158;2024-02-14T10:44:24;11.70;99.90
13433;DHT22;6789;47.678;9.158;2024-02-14T10:49:16;11.70;99.90
13433;DHT22;6789;47.678;9.158;2024-02-14T10:54:11;12.00;99.90
13433;DHT22;6789;47.678;9.158;2024-02-14T10:59:05;12.00;99.90
13433;DHT22;6789;47.678;9.158;2024-02-14T11:04:00;12.00;99.90
13433;DHT22;6789;47.678;9.158;2024-02-14T11:09:12;11.90;99.90
13433;DHT22;6789;47.678;9.158;2024-02-14T11:14:06;11.80;99.90
13433;DHT22;6789;47.678;9.158;2024-02-14T11:19:12;11.80;99.90
13433;DHT22;6789;47.678;9.158;2024-02-14T11:24:06;11.90;99.90
13433;DHT22;6789;47.678;9.158;2024-02-14T11:29:03;11.80;99.90
13433;DHT22;6789;47.678;9.158;2024-02-14T11:33:55;12.10;99.90
13433;DHT22;6789;47.678;9.158;2024-02-14T11:38:48;12.00;99.90
13433;DHT22;6789;47.678;9.158;2024-02-14T11:43:51;11.80;99.90
13433;DHT22;6789;47.678;9.158;2024-02-14T11:48:43;11.80;99.90
13433;DHT22;6789;47.678;9.158;2024-02-14T11:53:39;11.90;99.90
13433;DHT22;6789;47.678;9.158;2024-02-14T11:58:32;12.00;99.90
13433;DHT22;6789;47.678;9.158;2024-02-14T12:03:25;12.10;99.90
13433;DHT22;6789;47.678;9.158;2024-02-14T12:08:18;12.10;99.90
13433;DHT22;6789;47.678;9.158;2024-02-14T12:13:15;12.40;99.90
13433;DHT22;6789;47.678;9.158;2024-02-14T12:18:10;12.20;99.90
13433;DHT22;6789;47.678;9.158;2024-02-14T12:23:02;12.30;99.90
13433;DHT22;6789;47.678;9.158;2024-02-14T12:27:56;12.50;99.90
13433;DHT22;6789;47.678;9.158;2024-02-14T12:32:58;12.40;99.90
13433;DHT22;6789;47.678;9.158;2024-02-14T12:37:51;12.50;99.90
13433;DHT22;6789;47.678;9.158;2024-02-14T12:42:45;12.70;99.90
13433;DHT22;6789;47.678;9.158;2024-02-14T12:47:36;12.90;99.90
13433;DHT22;6789;47.678;9.158;2024-02-14T12:52:28;12.90;99.90
13433;DHT22;6789;47.678;9.158;2024-02-14T12:57:20;12.80;99.90
13433;DHT22;6789;47.678;9.158;2024-02-14T13:02:13;13.00;99.90
13433;DHT22;6789;47.678;9.158;2024-02-14T13:07:05;13.30;99.90
13433;DHT22;6789;47.678;9.158;2024-02-14T13:11:57;13.40;99.90
13433;DHT22;6789;47.678;9.158;2024-02-14T13:16:48;13.40;99.90
13433;DHT22;6789;47.678;9.158;2024-02-14T13:21:40;13.60;99.90
13433;DHT22;6789;47.678;9.158;2024-02-14T13:26:53;13.60;99.90
13433;DHT22;6789;47.678;9.158;2024-02-14T13:31:45;13.60;99.90
13433;DHT22;6789;47.678;9.158;2024-02-14T13:36:37;13.70;99.90
13433;DHT22;6789;47.678;9.158;2024-02-14T13:41:29;13.70;99.90
13433;DHT22;6789;47.678;9.158;2024-02-14T13:46:21;13.80;99.90
13433;DHT22;6789;47.678;9.158;2024-02-14T13:51:13;13.90;99.90
13433;DHT22;6789;47.678;9.158;2024-02-14T13:56:05;14.00;99.90
13433;DHT22;6789;47.678;9.158;2024-02-14T14:00:58;14.00;99.90
13433;DHT22;6789;47.678;9.158;2024-02-14T14:05:50;14.00;99.90
13433;DHT22;6789;47.678;9.158;2024-02-14T14:10:42;14.10;99.90
13433;DHT22;6789;47.678;9.158;2024-02-14T14:15:35;13.80;99.90
13433;DHT22;6789;47.678;9.158;2024-02-14T14:20:27;13.70;99.90
13433;DHT22;6789;47.678;9.158;2024-02-14T14:25:19;13.60;99.90
13433;DHT22;6789;47.678;9.158;2024-02-14T14:30:11;13.50;99.90
13433;DHT22;6789;47.678;9.158;2024-02-14T14:35:04;13.50;99.90
13433;DHT22;6789;47.678;9.158;2024-02-14T14:39:56;13.50;99.90
13433;DHT22;6789;47.678;9.158;2024-02-14T14:44:49;13.60;99.90
13433;DHT22;6789;47.678;9.158;2024-02-14T14:49:41;13.60;99.90
13433;DHT22;6789;47.678;9.158;2024-02-14T14:54:33;13.70;99.90
13433;DHT22;6789;47.678;9.158;2024-02-14T14:59:25;13.80;99.90
13433;DHT22;6789;47.678;9.158;2024-02-14T15:04:17;13.80;99.90
13433;DHT22;6789;47.678;9.158;2024-02-14T15:09:11;13.90;99.90
13433;DHT22;6789;47.678;9.158;2024-02-14T15:14:03;13.80;99.90
13433;DHT22;6789;47.678;9.158;2024-02-14T15:18:58;13.70;99.90
13433;DHT22;6789;47.678;9.158;2024-02-14T15:23:50;13.70;99.90
13433;DHT22;6789;47.678;9.158;2024-02-14T15:28:41;13.50;99.90
13433;DHT22;6789;47.678;9.158;2024-02-14T15:33:36;13.50;99.90
13433;DHT22;6789;47.678;9.158;2024-02-14T15:38:29;13.30;99.90
13433;DHT22;6789;47.678;9.158;2024-02-14T15:43:21;13.20;99.90
13433;DHT22;6789;47.678;9.158;2024-02-14T15:48:13;13.10;99.90
13433;DHT22;6789;47.678;9.158;2024-02-14T15:53:09;13.10;99.90
13433;DHT22;6789;47.678;9.158;2024-02-14T15:58:01;13.10;99.90
13433;DHT22;6789;47.678;9.158;2024-02-14T16:02:53;13.00;99.90
13433;DHT22;6789;47.678;9.158;2024-02-14T16:07:45;12.70;99.90
13433;DHT22;6789;47.678;9.158;2024-02-14T16:12:37;12.50;99.90
13433;DHT22;6789;47.678;9.158;2024-02-14T16:17:29;12.30;99.90
13433;DHT22;6789;47.678;9.158;2024-02-14T16:22:21;12.10;99.90
13433;DHT22;6789;47.678;9.158;2024-02-14T16:27:13;12.10;99.90
13433;DHT22;6789;47.678;9.158;2024-02-14T16:32:07;11.90;99.90
13433;DHT22;6789;47.678;9.158;2024-02-14T16:36:59;11.80;99.90
13433;DHT22;6789;47.678;9.158;2024-02-14T16:41:51;11.50;99.90
13433;DHT22;6789;47.678;9.158;2024-02-14T16:46:43;11.30;99.90
13433;DHT22;6789;47.678;9.158;2024-02-14T16:51:51;11.20;99.90
13433;DHT22;6789;47.678;9.158;2024-02-14T16:57:00;11.00;99.90
13433;DHT22;6789;47.678;9.158;2024-02-14T17:02:03;11.00;99.90
13433;DHT22;6789;47.678;9.158;2024-02-14T17:06:57;11.00;99.90
13433;DHT22;6789;47.678;9.158;2024-02-14T17:11:49;10.90;99.90
13433;DHT22;6789;47.678;9.158;2024-02-14T17:16:42;10.90;99.90
13433;DHT22;6789;47.678;9.158;2024-02-14T17:21:34;10.80;99.90
13433;DHT22;6789;47.678;9.158;2024-02-14T17:26:28;10.70;99.90
13433;DHT22;6789;47.678;9.158;2024-02-14T17:31:21;10.80;99.90
13433;DHT22;6789;47.678;9.158;2024-02-14T17:36:13;10.70;99.90
13433;DHT22;6789;47.678;9.158;2024-02-14T17:41:05;10.70;99.90
13433;DHT22;6789;47.678;9.158;2024-02-14T17:45:59;10.70;99.90
13433;DHT22;6789;47.678;9.158;2024-02-14T17:50:51;10.60;99.90
13433;DHT22;6789;47.678;9.158;2024-02-14T17:55:43;10.50;99.90
13433;DHT22;6789;47.678;9.158;2024-02-14T18:00:35;10.60;99.90
13433;DHT22;6789;47.678;9.158;2024-02-14T18:05:26;10.70;99.90
13433;DHT22;6789;47.678;9.158;2024-02-14T18:10:19;10.50;99.90
13433;DHT22;6789;47.678;9.158;2024-02-14T18:15:15;10.40;99.90
13433;DHT22;6789;47.678;9.158;2024-02-14T18:20:21;10.30;99.90
13433;DHT22;6789;47.678;9.158;2024-02-14T18:25:13;10.30;99.90
13433;DHT22;6789;47.678;9.158;2024-02-14T18:30:06;10.20;99.90
13433;DHT22;6789;47.678;9.158;2024-02-14T18:35:00;10.10;99.90
13433;DHT22;6789;47.678;9.158;2024-02-14T18:39:52;10.10;99.90
13433;DHT22;6789;47.678;9.158;2024-02-14T18:44:45;10.00;99.90
13433;DHT22;6789;47.678;9.158;2024-02-14T18:49:38;10.00;99.90
13433;DHT22;6789;47.678;9.158;2024-02-14T18:54:36;9.90;99.90
13433;DHT22;6789;47.678;9.158;2024-02-14T18:59:27;9.90;99.90
13433;DHT22;6789;47.678;9.158;2024-02-14T19:04:19;9.90;99.90
13433;DHT22;6789;47.678;9.158;2024-02-14T19:09:11;9.80;99.90
13433;DHT22;6789;47.678;9.158;2024-02-14T19:14:03;9.80;99.90
13433;DHT22;6789;47.678;9.158;2024-02-14T19:18:55;9.80;99.90
13433;DHT22;6789;47.678;9.158;2024-02-14T19:23:48;9.70;99.90
13433;DHT22;6789;47.678;9.158;2024-02-14T19:28:40;9.80;99.90
13433;DHT22;6789;47.678;9.158;2024-02-14T19:33:32;9.70;99.90
13433;DHT22;6789;47.678;9.158;2024-02-14T19:38:24;9.70;99.90
13433;DHT22;6789;47.678;9.158;2024-02-14T19:43:16;9.70;99.90
13433;DHT22;6789;47.678;9.158;2024-02-14T19:48:25;9.80;99.90
13433;DHT22;6789;47.678;9.158;2024-02-14T19:53:21;9.70;99.90
13433;DHT22;6789;47.678;9.158;2024-02-14T19:58:14;9.80;99.90
13433;DHT22;6789;47.678;9.158;2024-02-14T20:03:06;9.70;99.90
13433;DHT22;6789;47.678;9.158;2024-02-14T20:07:58;9.70;99.90
13433;DHT22;6789;47.678;9.158;2024-02-14T20:12:52;9.70;99.90
13433;DHT22;6789;47.678;9.158;2024-02-14T20:17:44;9.60;99.90
13433;DHT22;6789;47.678;9.158;2024-02-14T20:22:37;9.60;99.90
13433;DHT22;6789;47.678;9.158;2024-02-14T20:27:29;9.60;99.90
13433;DHT22;6789;47.678;9.158;2024-02-14T20:32:23;9.60;99.90
13433;DHT22;6789;47.678;9.158;2024-02-14T20:37:14;9.70;99.90
13433;DHT22;6789;47.678;9.158;2024-02-14T20:42:07;9.60;99.90
13433;DHT22;6789;47.678;9.158;2024-02-14T20:46:59;9.60;99.90
13433;DHT22;6789;47.678;9.158;2024-02-14T20:51:52;9.60;99.90
13433;DHT22;6789;47.678;9.158;2024-02-14T20:56:44;9.60;99.90
13433;DHT22;6789;47.678;9.158;2024-02-14T21:01:36;9.60;99.90
13433;DHT22;6789;47.678;9.158;2024-02-14T21:06:36;9.50;99.90
13433;DHT22;6789;47.678;9.158;2024-02-14T21:11:28;9.50;99.90
13433;DHT22;6789;47.678;9.158;2024-02-14T21:16:20;9.50;99.90
13433;DHT22;6789;47.678;9.158;2024-02-14T21:21:13;9.50;99.90
13433;DHT22;6789;47.678;9.158;2024-02-14T21:26:18;9.40;99.90
13433;DHT22;6789;47.678;9.158;2024-02-14T21:31:10;9.50;99.90
13433;DHT22;6789;47.678;9.158;2024-02-14T21:36:02;9.50;99.90
13433;DHT22;6789;47.678;9.158;2024-02-14T21:40:55;9.50;99.90
13433;DHT22;6789;47.678;9.158;2024-02-14T21:45:47;9.50;99.90
13433;DHT22;6789;47.678;9.158;2024-02-14T21:50:39;9.50;99.90
13433;DHT22;6789;47.678;9.158;2024-02-14T21:55:31;9.40;99.90
13433;DHT22;6789;47.678;9.158;2024-02-14T22:00:23;9.40;99.90
13433;DHT22;6789;47.678;9.158;2024-02-14T22:05:14;9.30;99.90
13433;DHT22;6789;47.678;9.158;2024-02-14T22:10:06;9.30;99.90
13433;DHT22;6789;47.678;9.158;2024-02-14T22:14:59;9.30;99.90
13433;DHT22;6789;47.678;9.158;2024-02-14T22:19:50;9.30;99.90
13433;DHT22;6789;47.678;9.158;2024-02-14T22:24:44;9.20;99.90
13433;DHT22;6789;47.678;9.158;2024-02-14T22:29:39;9.20;99.90
13433;DHT22;6789;47.678;9.158;2024-02-14T22:34:31;9.20;99.90
13433;DHT22;6789;47.678;9.158;2024-02-14T22:39:23;9.20;99.90
13433;DHT22;6789;47.678;9.158;2024-02-14T22:44:15;9.20;99.90
13433;DHT22;6789;47.678;9.158;2024-02-14T22:49:11;9.10;99.90
13433;DHT22;6789;47.678;9.158;2024-02-14T22:54:03;9.10;99.90
13433;DHT22;6789;47.678;9.158;2024-02-14T22:58:55;9.10;99.90
13433;DHT22;6789;47.678;9.158;2024-02-14T23:03:47;9.00;99.90
13433;DHT22;6789;47.678;9.158;2024-02-14T23:08:53;9.00;99.90
13433;DHT22;6789;47.678;9.158;2024-02-14T23:13:45;9.00;99.90
13433;DHT22;6789;47.678;9.158;2024-02-14T23:18:37;8.90;99.90
13433;DHT22;6789;47.678;9.158;2024-02-14T23:23:29;8.90;99.90
13433;DHT22;6789;47.678;9.158;2024-02-14T23:28:21;8.80;99.90
13433;DHT22;6789;47.678;9.158;2024-02-14T23:33:13;8.70;99.90
13433;DHT22;6789;47.678;9.158;2024-02-14T23:38:08;8.60;99.90
13433;DHT22;6789;47.678;9.158;2024-02-14T23:43:00;8.40;99.90
13433;DHT22;6789;47.678;9.158;2024-02-14T23:47:51;8.40;99.90
13433;DHT22;6789;47.678;9.158;2024-02-14T23:52:46;8.30;99.90
13433;DHT22;6789;47.678;9.158;2024-02-14T23:57:39;8.20;99.90
